createdAt,value
2023-03-06T00:00:43.920Z,4.50
2023-03-06T00:03:10.899Z,4.50
2023-03-06T00:05:37.728Z,4.50
2023-03-06T00:08:04.728Z,4.60
2023-03-06T00:10:32.614Z,4.50
2023-03-06T00:13:02.954Z,4.50
2023-03-06T00:15:30.774Z,4.50
2023-03-06T00:17:57.728Z,4.40
2023-03-06T00:20:25.625Z,4.40
2023-03-06T00:22:52.453Z,4.50
2023-03-06T00:25:21.317Z,4.50
2023-03-06T00:27:48.801Z,4.50
2023-03-06T00:30:18.414Z,4.50
2023-03-06T00:32:45.211Z,4.50
2023-03-06T00:35:13.142Z,4.50
2023-03-06T00:37:40.591Z,4.50
2023-03-06T00:40:12.344Z,4.50
2023-03-06T00:42:39.100Z,4.50
2023-03-06T00:45:06.562Z,4.50
2023-03-06T00:47:33.344Z,4.40
2023-03-06T00:50:00.172Z,4.40
2023-03-06T00:52:27.022Z,4.40
2023-03-06T00:54:53.829Z,4.40
2023-03-06T00:57:20.581Z,4.40
2023-03-06T00:59:47.352Z,4.40
2023-03-06T01:02:14.109Z,4.40
2023-03-06T01:04:40.949Z,4.40
2023-03-06T01:07:07.968Z,4.40
2023-03-06T01:09:34.777Z,4.40
2023-03-06T01:12:01.553Z,4.40
2023-03-06T01:14:28.502Z,4.30
2023-03-06T01:16:55.221Z,4.20
2023-03-06T01:19:21.955Z,4.00
2023-03-06T01:21:48.659Z,4.00
2023-03-06T01:24:15.360Z,4.00
2023-03-06T01:26:42.178Z,4.20
2023-03-06T01:29:08.896Z,4.20
2023-03-06T01:31:35.803Z,4.20
2023-03-06T01:34:02.547Z,4.30
2023-03-06T01:36:29.385Z,4.30
2023-03-06T01:38:56.196Z,4.20
2023-03-06T01:41:23.041Z,4.20
2023-03-06T01:43:49.891Z,4.20
2023-03-06T01:46:28.521Z,4.20
2023-03-06T01:49:15.385Z,4.20
2023-03-06T01:52:07.297Z,4.10
2023-03-06T01:54:49.889Z,4.10
2023-03-06T01:57:24.001Z,4.10
2023-03-06T02:00:02.204Z,4.10
2023-03-06T02:02:29.389Z,4.20
2023-03-06T02:04:56.607Z,4.20
2023-03-06T02:07:23.440Z,4.20
2023-03-06T02:09:50.153Z,4.20
2023-03-06T02:12:19.105Z,4.20
2023-03-06T02:14:46.631Z,4.20
2023-03-06T02:17:16.546Z,4.20
2023-03-06T02:20:09.686Z,4.20
2023-03-06T02:22:57.429Z,4.20
2023-03-06T02:25:38.447Z,4.20
2023-03-06T02:28:08.309Z,4.20
2023-03-06T02:30:35.946Z,4.20
2023-03-06T02:33:03.174Z,4.20
2023-03-06T02:35:33.020Z,4.20
2023-03-06T02:38:06.034Z,4.20
2023-03-06T02:40:32.921Z,4.20
2023-03-06T02:43:00.421Z,4.20
2023-03-06T02:45:37.715Z,4.20
2023-03-06T02:48:04.730Z,4.10
2023-03-06T02:50:32.565Z,4.10
2023-03-06T02:52:59.472Z,4.00
2023-03-06T02:55:26.297Z,4.00
2023-03-06T02:57:53.060Z,3.70
2023-03-06T03:00:20.372Z,3.70
2023-03-06T03:02:47.188Z,3.80
2023-03-06T03:05:14.331Z,4.00
2023-03-06T03:07:41.322Z,4.00
2023-03-06T03:10:08.860Z,4.10
2023-03-06T03:12:35.675Z,4.10
2023-03-06T03:15:02.547Z,4.10
2023-03-06T03:17:29.303Z,4.10
2023-03-06T03:19:56.098Z,4.10
2023-03-06T03:22:23.166Z,4.10
2023-03-06T03:24:49.915Z,4.10
2023-03-06T03:27:16.647Z,4.10
2023-03-06T03:29:43.488Z,4.10
2023-03-06T03:32:10.672Z,4.10
2023-03-06T03:34:37.436Z,4.10
2023-03-06T03:37:04.448Z,4.10
2023-03-06T03:39:31.167Z,4.10
2023-03-06T03:41:57.920Z,4.10
2023-03-06T03:44:24.864Z,4.10
2023-03-06T03:46:51.875Z,4.10
2023-03-06T03:49:18.683Z,4.10
2023-03-06T03:51:45.372Z,4.00
2023-03-06T03:54:12.206Z,4.00
2023-03-06T03:56:40.766Z,4.10
2023-03-06T03:59:08.506Z,4.10
2023-03-06T04:01:35.593Z,4.00
2023-03-06T04:04:03.268Z,4.00
2023-03-06T04:06:30.412Z,4.00
2023-03-06T04:08:57.131Z,4.00
2023-03-06T04:11:23.846Z,4.00
2023-03-06T04:13:50.585Z,4.00
2023-03-06T04:16:17.398Z,4.00
2023-03-06T04:18:44.168Z,4.00
2023-03-06T04:21:10.885Z,3.90
2023-03-06T04:23:37.615Z,4.00
2023-03-06T04:26:04.766Z,3.80
2023-03-06T04:28:31.513Z,3.90
2023-03-06T04:30:58.235Z,3.70
2023-03-06T04:33:24.988Z,3.80
2023-03-06T04:35:51.717Z,3.80
2023-03-06T04:38:18.592Z,3.80
2023-03-06T04:40:45.391Z,3.80
2023-03-06T04:43:12.621Z,3.80
2023-03-06T04:45:39.413Z,3.80
2023-03-06T04:48:06.566Z,3.80
2023-03-06T04:50:33.741Z,3.80
2023-03-06T04:53:01.293Z,3.80
2023-03-06T04:55:28.525Z,3.80
2023-03-06T04:57:55.295Z,3.80
2023-03-06T05:00:24.359Z,3.80
2023-03-06T05:02:51.816Z,3.70
2023-03-06T05:05:19.050Z,3.70
2023-03-06T05:07:45.763Z,3.70
2023-03-06T05:10:15.801Z,3.60
2023-03-06T05:12:43.054Z,3.70
2023-03-06T05:15:11.185Z,3.60
2023-03-06T05:17:38.791Z,3.60
2023-03-06T05:20:07.879Z,3.60
2023-03-06T05:22:35.087Z,3.70
2023-03-06T05:25:02.092Z,3.60
2023-03-06T05:27:29.958Z,3.60
2023-03-06T05:29:56.704Z,3.60
2023-03-06T05:32:23.599Z,3.60
2023-03-06T05:34:50.366Z,3.60
2023-03-06T05:37:17.252Z,3.60
2023-03-06T05:39:44.278Z,3.60
2023-03-06T05:42:11.021Z,3.60
2023-03-06T05:44:38.021Z,3.70
2023-03-06T05:47:04.834Z,3.60
2023-03-06T05:49:33.755Z,3.60
2023-03-06T05:52:03.898Z,3.60
2023-03-06T05:54:32.336Z,3.60
2023-03-06T05:56:59.578Z,3.60
2023-03-06T05:59:28.579Z,3.60
2023-03-06T06:01:56.289Z,3.60
2023-03-06T06:04:26.107Z,3.70
2023-03-06T06:06:58.328Z,3.70
2023-03-06T06:09:26.160Z,3.60
2023-03-06T06:11:54.992Z,3.60
2023-03-06T06:14:22.187Z,3.60
2023-03-06T06:16:49.065Z,3.60
2023-03-06T06:19:18.862Z,3.60
2023-03-06T06:21:51.645Z,3.60
2023-03-06T06:24:21.025Z,3.60
2023-03-06T06:26:51.609Z,3.60
2023-03-06T06:29:18.732Z,3.60
2023-03-06T06:31:45.521Z,3.60
2023-03-06T06:34:12.678Z,3.60
2023-03-06T06:36:39.866Z,3.70
2023-03-06T06:39:07.995Z,3.70
2023-03-06T06:41:54.851Z,3.70
2023-03-06T06:44:22.470Z,3.70
2023-03-06T06:47:21.448Z,3.70
2023-03-06T06:49:37.460Z,3.70
2023-03-06T06:52:05.368Z,3.70
2023-03-06T06:54:33.870Z,3.70
2023-03-06T06:57:00.696Z,3.70
2023-03-06T06:59:27.485Z,3.80
2023-03-06T07:01:54.294Z,3.80
2023-03-06T07:04:21.186Z,3.80
2023-03-06T07:06:48.038Z,3.80
2023-03-06T07:09:14.995Z,3.80
2023-03-06T07:11:42.146Z,3.80
2023-03-06T07:14:09.066Z,3.80
2023-03-06T07:16:35.905Z,3.90
2023-03-06T07:19:02.923Z,3.90
2023-03-06T07:21:29.790Z,3.80
2023-03-06T07:23:57.588Z,3.80
2023-03-06T07:26:25.894Z,3.80
2023-03-06T07:28:53.893Z,3.90
2023-03-06T07:31:23.171Z,3.90
2023-03-06T07:33:51.462Z,3.90
2023-03-06T07:36:18.468Z,3.90
2023-03-06T07:38:45.609Z,3.90
2023-03-06T07:41:13.473Z,3.80
2023-03-06T07:43:45.001Z,3.80
2023-03-06T07:46:13.426Z,3.90
2023-03-06T07:48:41.227Z,3.90
2023-03-06T07:51:15.381Z,4.00
2023-03-06T07:53:42.998Z,4.00
2023-03-06T07:56:11.838Z,4.00
2023-03-06T07:58:41.049Z,4.10
2023-03-06T08:01:10.686Z,4.10
2023-03-06T08:03:37.660Z,4.10
2023-03-06T08:06:16.205Z,4.10
2023-03-06T08:08:45.236Z,4.10
2023-03-06T08:11:14.833Z,4.20
2023-03-06T08:13:42.387Z,4.20
2023-03-06T08:16:10.141Z,4.20
2023-03-06T08:18:39.605Z,4.10
2023-03-06T08:21:11.821Z,4.10
2023-03-06T08:23:39.109Z,4.20
2023-03-06T08:26:08.651Z,4.20
2023-03-06T08:28:35.599Z,4.20
2023-03-06T08:31:26.978Z,4.20
2023-03-06T08:33:54.402Z,4.20
2023-03-06T08:36:21.601Z,4.20
2023-03-06T08:38:48.396Z,4.20
2023-03-06T08:41:15.273Z,4.30
2023-03-06T08:43:42.195Z,4.30
2023-03-06T08:46:10.660Z,4.30
2023-03-06T08:48:37.698Z,4.30
2023-03-06T08:51:04.902Z,4.30
2023-03-06T08:53:42.627Z,4.30
2023-03-06T08:56:19.081Z,4.30
2023-03-06T08:58:46.744Z,4.30
2023-03-06T09:01:19.577Z,4.30
2023-03-06T09:03:46.443Z,4.40
2023-03-06T09:06:14.114Z,4.40
2023-03-06T09:08:44.698Z,4.40
2023-03-06T09:11:13.419Z,4.50
2023-03-06T09:13:40.596Z,4.50
2023-03-06T09:16:08.901Z,4.60
2023-03-06T09:18:35.917Z,4.60
2023-03-06T09:21:04.016Z,4.60
2023-03-06T09:23:31.273Z,4.70
2023-03-06T09:25:59.661Z,4.70
2023-03-06T09:28:26.447Z,4.70
2023-03-06T09:30:54.426Z,4.70
2023-03-06T09:33:21.701Z,4.80
2023-03-06T09:35:51.095Z,4.90
2023-03-06T09:38:19.730Z,4.90
2023-03-06T09:43:48.174Z,5.00
2023-03-06T09:46:52.487Z,5.00
2023-03-06T09:49:45.804Z,5.00
2023-03-06T09:52:43.517Z,5.00
2023-03-06T09:55:27.097Z,5.10
2023-03-06T09:58:07.158Z,5.10
2023-03-06T10:00:43.025Z,5.10
2023-03-06T10:03:41.507Z,5.20
2023-03-06T10:06:33.047Z,5.20
2023-03-06T10:09:21.972Z,5.20
2023-03-06T10:11:56.828Z,5.30
2023-03-06T10:14:48.892Z,5.30
2023-03-06T10:17:22.129Z,5.30
2023-03-06T10:19:49.850Z,5.40
2023-03-06T10:22:46.074Z,5.40
2023-03-06T10:25:28.213Z,5.40
2023-03-06T10:28:09.566Z,5.50
2023-03-06T10:30:59.980Z,5.50
2023-03-06T10:33:41.656Z,5.50
2023-03-06T10:36:14.413Z,5.60
2023-03-06T10:38:42.024Z,5.60
2023-03-06T10:41:11.815Z,5.70
2023-03-06T10:44:05.543Z,5.70
2023-03-06T10:46:39.885Z,5.70
2023-03-06T10:49:22.688Z,5.70
2023-03-06T10:51:59.917Z,5.80
2023-03-06T10:54:31.782Z,5.90
2023-03-06T10:57:16.846Z,5.90
2023-03-06T11:00:14.335Z,5.90
2023-03-06T11:02:41.253Z,6.00
2023-03-06T11:05:20.154Z,6.00
2023-03-06T11:08:01.448Z,6.00
2023-03-06T11:10:30.204Z,6.00
2023-03-06T11:12:58.250Z,6.00
2023-03-06T11:15:27.149Z,6.00
2023-03-06T11:17:57.765Z,6.10
2023-03-06T11:20:49.917Z,6.10
2023-03-06T11:23:24.468Z,6.20
2023-03-06T11:26:20.505Z,6.20
2023-03-06T11:29:24.753Z,6.20
2023-03-06T11:31:55.635Z,6.30
2023-03-06T11:34:50.408Z,6.30
2023-03-06T11:37:32.478Z,6.30
2023-03-06T11:40:11.483Z,6.30
2023-03-06T11:42:43.101Z,6.30
2023-03-06T11:45:37.241Z,6.20
2023-03-06T11:48:18.940Z,6.30
2023-03-06T11:50:49.694Z,6.30
2023-03-06T11:53:19.424Z,6.30
2023-03-06T11:56:17.053Z,6.30
2023-03-06T11:59:18.009Z,6.30
2023-03-06T12:02:23.739Z,6.30
2023-03-06T12:05:12.338Z,6.30
2023-03-06T12:08:18.600Z,6.30
2023-03-06T12:10:52.895Z,6.20
2023-03-06T12:13:45.990Z,6.30
2023-03-06T12:16:45.644Z,6.30
2023-03-06T12:19:36.297Z,6.40
2023-03-06T12:22:31.158Z,6.40
2023-03-06T12:25:06.728Z,6.40
2023-03-06T12:27:42.242Z,6.50
2023-03-06T12:30:25.180Z,6.50
2023-03-06T12:33:06.719Z,6.50
2023-03-06T12:36:02.665Z,6.50
2023-03-06T12:38:38.409Z,6.40
2023-03-06T12:41:15.940Z,6.40
2023-03-06T12:44:01.602Z,6.40
2023-03-06T12:46:30.438Z,6.40
2023-03-06T12:49:26.306Z,6.40
2023-03-06T12:51:58.366Z,6.40
2023-03-06T12:54:29.216Z,6.30
2023-03-06T12:56:58.114Z,6.40
2023-03-06T12:59:44.180Z,6.40
2023-03-06T13:02:14.218Z,6.40
2023-03-06T13:05:19.301Z,6.40
2023-03-06T13:08:11.136Z,6.30
2023-03-06T13:10:41.769Z,6.30
2023-03-06T13:13:41.234Z,6.30
2023-03-06T13:16:12.572Z,6.20
2023-03-06T13:18:42.480Z,6.10
2023-03-06T13:21:45.604Z,6.00
2023-03-06T13:24:22.371Z,6.00
2023-03-06T13:26:54.991Z,5.80
2023-03-06T13:29:37.038Z,5.80
2023-03-06T13:32:03.742Z,5.80
2023-03-06T13:34:46.954Z,5.80
2023-03-06T13:37:13.634Z,5.80
2023-03-06T13:40:00.408Z,5.80
2023-03-06T13:42:37.400Z,5.90
2023-03-06T13:45:43.993Z,5.80
2023-03-06T13:48:43.796Z,5.80
2023-03-06T13:51:26.620Z,5.90
2023-03-06T13:54:21.808Z,5.90
2023-03-06T13:57:25.783Z,5.90
2023-03-06T14:00:46.683Z,6.00
2023-03-06T14:03:35.025Z,6.00
2023-03-06T14:06:01.858Z,6.00
2023-03-06T14:08:32.294Z,6.00
2023-03-06T14:11:06.965Z,6.00
2023-03-06T14:13:45.433Z,6.00
2023-03-06T14:16:22.461Z,6.00
2023-03-06T14:18:51.928Z,6.10
2023-03-06T14:21:37.400Z,6.10
2023-03-06T14:24:05.198Z,6.10
2023-03-06T14:26:46.341Z,6.10
2023-03-06T14:29:21.703Z,6.00
2023-03-06T14:31:53.021Z,6.00
2023-03-06T14:34:24.241Z,5.90
2023-03-06T14:36:53.140Z,5.90
2023-03-06T14:39:36.748Z,5.90
2023-03-06T14:42:15.423Z,5.90
2023-03-06T14:44:42.532Z,5.90
2023-03-06T14:47:33.388Z,5.80
2023-03-06T14:50:23.442Z,5.70
2023-03-06T14:52:53.877Z,5.80
2023-03-06T14:55:23.823Z,5.70
2023-03-06T14:58:07.784Z,5.80
2023-03-06T15:00:40.026Z,5.80
2023-03-06T15:03:20.253Z,5.80
2023-03-06T15:05:47.832Z,5.70
2023-03-06T15:08:19.332Z,5.70
2023-03-06T15:11:01.254Z,5.70
2023-03-06T15:13:30.455Z,5.70
2023-03-06T15:16:00.154Z,5.70
2023-03-06T15:18:29.677Z,5.60
2023-03-06T15:21:08.285Z,5.60
2023-03-06T15:23:37.722Z,5.60
2023-03-06T15:26:39.719Z,5.60
2023-03-06T15:29:10.297Z,5.60
2023-03-06T15:31:42.663Z,5.50
2023-03-06T15:34:09.349Z,5.50
2023-03-06T15:36:43.452Z,5.50
2023-03-06T15:39:27.015Z,5.50
2023-03-06T15:42:07.366Z,5.50
2023-03-06T15:44:34.132Z,5.40
2023-03-06T15:47:08.821Z,5.40
2023-03-06T15:49:38.237Z,5.50
2023-03-06T15:52:09.680Z,5.50
2023-03-06T15:54:36.692Z,5.40
2023-03-06T15:57:07.612Z,5.40
2023-03-06T15:59:41.505Z,5.40
2023-03-06T16:02:16.211Z,5.50
2023-03-06T16:04:43.672Z,5.40
2023-03-06T16:07:10.419Z,5.40
2023-03-06T16:09:37.206Z,5.40
2023-03-06T16:12:04.537Z,5.40
2023-03-06T16:14:31.415Z,5.30
2023-03-06T16:16:59.517Z,5.30
2023-03-06T16:19:27.909Z,5.30
2023-03-06T16:21:56.445Z,5.30
2023-03-06T16:24:23.646Z,5.20
2023-03-06T16:26:52.584Z,5.10
2023-03-06T16:29:22.406Z,5.10
2023-03-06T16:31:50.023Z,5.10
2023-03-06T16:34:19.676Z,5.10
2023-03-06T16:36:48.146Z,5.10
2023-03-06T16:39:20.991Z,5.10
2023-03-06T16:41:49.361Z,5.10
2023-03-06T16:44:16.477Z,5.10
2023-03-06T16:46:47.983Z,5.10
2023-03-06T16:49:20.971Z,5.10
2023-03-06T16:51:48.233Z,5.00
2023-03-06T16:54:15.537Z,4.90
2023-03-06T16:56:42.698Z,5.00
2023-03-06T16:59:10.427Z,5.00
2023-03-06T17:01:38.522Z,5.00
2023-03-06T17:04:05.364Z,5.00
2023-03-06T17:06:32.058Z,5.00
2023-03-06T17:08:59.734Z,4.90
2023-03-06T17:11:27.087Z,5.00
2023-03-06T17:13:55.232Z,4.90
2023-03-06T17:16:22.223Z,4.90
2023-03-06T17:18:49.621Z,4.90
2023-03-06T17:21:16.301Z,4.90
2023-03-06T17:23:44.448Z,4.80
2023-03-06T17:26:14.401Z,4.80
2023-03-06T17:28:42.352Z,4.80
2023-03-06T17:31:21.452Z,4.80
2023-03-06T17:33:48.488Z,4.80
2023-03-06T17:36:16.621Z,4.80
2023-03-06T17:38:43.585Z,4.80
2023-03-06T17:41:13.098Z,4.80
2023-03-06T17:43:41.040Z,4.70
2023-03-06T17:46:10.110Z,4.70
2023-03-06T17:48:37.521Z,4.70
2023-03-06T17:51:05.180Z,4.70
2023-03-06T17:53:32.387Z,4.70
2023-03-06T17:55:59.120Z,4.70
2023-03-06T17:58:26.750Z,4.70
2023-03-06T18:00:53.785Z,4.80
2023-03-06T18:03:20.969Z,4.70
2023-03-06T18:05:48.041Z,4.70
2023-03-06T18:08:14.830Z,4.70
2023-03-06T18:10:43.533Z,4.70
2023-03-06T18:13:10.872Z,4.70
2023-03-06T18:15:41.536Z,4.70
2023-03-06T18:18:08.884Z,4.70
2023-03-06T18:20:41.591Z,4.70
2023-03-06T18:23:08.645Z,4.70
2023-03-06T18:25:36.914Z,4.70
2023-03-06T18:28:03.858Z,4.70
2023-03-06T18:30:30.613Z,4.70
2023-03-06T18:32:57.373Z,4.70
2023-03-06T18:35:24.073Z,4.80
2023-03-06T18:37:52.083Z,4.80
2023-03-06T18:40:19.124Z,4.70
2023-03-06T18:42:46.001Z,4.70
2023-03-06T18:45:12.927Z,4.70
2023-03-06T18:47:40.680Z,4.70
2023-03-06T18:50:08.757Z,4.70
2023-03-06T18:52:35.673Z,4.70
2023-03-06T18:55:02.432Z,4.70
2023-03-06T18:57:30.412Z,4.70
2023-03-06T18:59:57.352Z,4.70
2023-03-06T19:02:24.130Z,4.70
2023-03-06T19:04:50.862Z,4.70
2023-03-06T19:07:17.559Z,4.70
2023-03-06T19:09:44.436Z,4.70
2023-03-06T19:12:11.561Z,4.70
2023-03-06T19:14:38.311Z,4.70
2023-03-06T19:17:05.191Z,4.70
2023-03-06T19:19:32.050Z,4.70
2023-03-06T19:21:58.913Z,4.60
2023-03-06T19:24:25.745Z,4.70
2023-03-06T19:26:52.547Z,4.70
2023-03-06T19:29:19.295Z,4.70
2023-03-06T19:31:45.985Z,4.70
2023-03-06T19:34:12.737Z,4.70
2023-03-06T19:36:40.862Z,4.60
2023-03-06T19:39:08.147Z,4.60
2023-03-06T19:41:35.107Z,4.60
2023-03-06T19:44:05.860Z,4.60
2023-03-06T19:46:33.132Z,4.60
2023-03-06T19:49:01.874Z,4.60
2023-03-06T19:51:29.372Z,4.60
2023-03-06T19:53:57.479Z,4.60
2023-03-06T19:56:26.796Z,4.60
2023-03-06T19:58:53.949Z,4.60
2023-03-06T20:01:22.843Z,4.60
2023-03-06T20:03:50.610Z,4.60
2023-03-06T20:06:19.947Z,4.60
2023-03-06T20:08:47.749Z,4.50
2023-03-06T20:11:19.053Z,4.50
2023-03-06T20:13:47.384Z,4.50
2023-03-06T20:16:15.082Z,4.50
2023-03-06T20:18:41.862Z,4.50
2023-03-06T20:21:08.825Z,4.40
2023-03-06T20:23:35.703Z,4.50
2023-03-06T20:26:09.941Z,4.50
2023-03-06T20:28:39.173Z,4.50
2023-03-06T20:31:07.611Z,4.50
2023-03-06T20:33:34.789Z,4.50
2023-03-06T20:36:01.585Z,4.50
2023-03-06T20:38:28.284Z,4.50
2023-03-06T20:40:56.196Z,4.50
2023-03-06T20:43:23.615Z,4.50
2023-03-06T20:46:04.070Z,4.50
2023-03-06T20:48:30.796Z,4.60
2023-03-06T20:51:10.160Z,4.70
2023-03-06T20:53:37.068Z,4.60
2023-03-06T20:56:04.004Z,4.60
2023-03-06T20:58:31.793Z,4.50
2023-03-06T21:01:00.798Z,4.50
2023-03-06T21:03:29.280Z,4.50
2023-03-06T21:05:56.078Z,4.60
2023-03-06T21:08:31.834Z,4.50
2023-03-06T21:10:58.634Z,4.50
2023-03-06T21:13:25.338Z,4.60
2023-03-06T21:15:52.633Z,4.60
2023-03-06T21:18:19.343Z,4.60
2023-03-06T21:20:46.060Z,4.60
2023-03-06T21:23:12.796Z,4.60
2023-03-06T21:25:51.078Z,4.60
2023-03-06T21:28:18.599Z,4.60
2023-03-06T21:30:46.180Z,4.60
2023-03-06T21:33:13.733Z,4.60
2023-03-06T21:35:41.534Z,4.60
2023-03-06T21:38:08.623Z,4.60
2023-03-06T21:40:35.418Z,4.70
2023-03-06T21:43:02.164Z,4.60
2023-03-06T21:45:30.288Z,4.60
2023-03-06T21:47:57.900Z,4.60
2023-03-06T21:50:25.731Z,4.70
2023-03-06T21:52:53.329Z,4.60
2023-03-06T21:55:20.300Z,4.70
2023-03-06T21:57:51.593Z,4.70
2023-03-06T22:00:19.507Z,4.70
2023-03-06T22:02:47.111Z,4.60
2023-03-06T22:05:13.987Z,4.60
2023-03-06T22:07:41.076Z,4.70
2023-03-06T22:10:09.506Z,4.70
2023-03-06T22:12:36.636Z,4.70
2023-03-06T22:15:03.562Z,4.60
2023-03-06T22:17:31.459Z,4.70
2023-03-06T22:19:58.561Z,4.60
2023-03-06T22:22:26.007Z,4.60
2023-03-06T22:24:52.717Z,4.60
2023-03-06T22:27:19.400Z,4.60
2023-03-06T22:29:46.312Z,4.60
2023-03-06T22:32:13.446Z,4.60
2023-03-06T22:34:40.199Z,4.60
2023-03-06T22:37:06.907Z,4.60
2023-03-06T22:39:33.645Z,4.60
2023-03-06T22:42:00.349Z,4.60
2023-03-06T22:44:27.085Z,4.60
2023-03-06T22:46:53.778Z,4.60
2023-03-06T22:49:20.583Z,4.60
2023-03-06T22:51:47.631Z,4.60
2023-03-06T22:54:14.320Z,4.60
2023-03-06T22:56:41.048Z,4.60
2023-03-06T22:59:07.685Z,4.60
2023-03-06T23:01:35.139Z,4.60
2023-03-06T23:04:04.834Z,4.60
2023-03-06T23:06:34.473Z,4.60
2023-03-06T23:09:06.049Z,4.60
2023-03-06T23:11:33.636Z,4.60
2023-03-06T23:14:00.770Z,4.60
2023-03-06T23:16:27.469Z,4.60
2023-03-06T23:18:54.216Z,4.60
2023-03-06T23:21:22.822Z,4.60
2023-03-06T23:23:51.981Z,4.60
2023-03-06T23:26:21.472Z,4.70
2023-03-06T23:28:48.429Z,4.60
2023-03-06T23:31:22.956Z,4.60
2023-03-06T23:33:50.185Z,4.60
2023-03-06T23:36:18.726Z,4.60
2023-03-06T23:38:45.714Z,4.60
2023-03-06T23:41:15.662Z,4.60
2023-03-06T23:43:42.969Z,4.60
2023-03-06T23:46:10.204Z,4.60
2023-03-06T23:48:39.204Z,4.60
2023-03-06T23:51:18.023Z,4.60
2023-03-06T23:53:45.774Z,4.60
2023-03-06T23:56:13.585Z,4.60
2023-03-06T23:58:40.897Z,4.60
